sensor_id;sensor_type;location;lat;lon;timestamp;temperature;humidity
54178;DHT22;40085;53.004;6.770;2022-12-04T00:01:14;1.10;99.90
54178;DHT22;40085;53.004;6.770;2022-12-04T00:03:40;1.10;99.90
54178;DHT22;40085;53.004;6.770;2022-12-04T00:06:09;1.10;99.90
54178;DHT22;40085;53.004;6.770;2022-12-04T00:08:35;1.20;99.90
54178;DHT22;40085;53.004;6.770;2022-12-04T00:11:05;1.20;99.90
54178;DHT22;40085;53.004;6.770;2022-12-04T00:13:32;1.20;99.90
54178;DHT22;40085;53.004;6.770;2022-12-04T00:15:58;1.10;99.90
54178;DHT22;40085;53.004;6.770;2022-12-04T00:18:24;1.80;99.90
54178;DHT22;40085;53.004;6.770;2022-12-04T00:20:49;1.20;99.90
54178;DHT22;40085;53.004;6.770;2022-12-04T00:23:15;1.10;99.90
54178;DHT22;40085;53.004;6.770;2022-12-04T00:25:42;1.20;99.90
54178;DHT22;40085;53.004;6.770;2022-12-04T00:28:15;1.10;99.90
54178;DHT22;40085;53.004;6.770;2022-12-04T00:30:42;1.10;99.90
54178;DHT22;40085;53.004;6.770;2022-12-04T00:33:08;2.30;99.90
54178;DHT22;40085;53.004;6.770;2022-12-04T00:35:34;1.10;99.90
54178;DHT22;40085;53.004;6.770;2022-12-04T00:38:00;1.10;99.90
54178;DHT22;40085;53.004;6.770;2022-12-04T00:40:25;1.10;99.90
54178;DHT22;40085;53.004;6.770;2022-12-04T00:42:51;1.00;99.90
54178;DHT22;40085;53.004;6.770;2022-12-04T00:45:17;1.10;99.90
54178;DHT22;40085;53.004;6.770;2022-12-04T00:47:42;2.60;99.90
54178;DHT22;40085;53.004;6.770;2022-12-04T00:50:08;1.10;99.90
54178;DHT22;40085;53.004;6.770;2022-12-04T00:52:34;1.00;99.90
54178;DHT22;40085;53.004;6.770;2022-12-04T00:55:00;1.00;99.90
54178;DHT22;40085;53.004;6.770;2022-12-04T00:57:25;1.00;99.90
54178;DHT22;40085;53.004;6.770;2022-12-04T00:59:51;1.90;99.90
54178;DHT22;40085;53.004;6.770;2022-12-04T01:02:17;1.00;99.90
54178;DHT22;40085;53.004;6.770;2022-12-04T01:04:42;1.00;99.90
54178;DHT22;40085;53.004;6.770;2022-12-04T01:07:08;1.10;99.90
54178;DHT22;40085;53.004;6.770;2022-12-04T01:09:33;1.10;99.90
54178;DHT22;40085;53.004;6.770;2022-12-04T01:11:59;1.00;99.90
54178;DHT22;40085;53.004;6.770;2022-12-04T01:14:25;1.00;99.90
54178;DHT22;40085;53.004;6.770;2022-12-04T01:16:50;1.00;99.90
54178;DHT22;40085;53.004;6.770;2022-12-04T01:19:16;1.70;99.90
54178;DHT22;40085;53.004;6.770;2022-12-04T01:21:42;1.00;99.90
54178;DHT22;40085;53.004;6.770;2022-12-04T01:24:08;1.00;99.90
54178;DHT22;40085;53.004;6.770;2022-12-04T01:26:33;1.00;99.90
54178;DHT22;40085;53.004;6.770;2022-12-04T01:29:00;1.00;99.90
54178;DHT22;40085;53.004;6.770;2022-12-04T01:31:25;1.00;99.90
54178;DHT22;40085;53.004;6.770;2022-12-04T01:33:51;0.90;99.90
54178;DHT22;40085;53.004;6.770;2022-12-04T01:36:20;0.90;99.90
54178;DHT22;40085;53.004;6.770;2022-12-04T01:38:46;0.90;99.90
54178;DHT22;40085;53.004;6.770;2022-12-04T01:41:14;0.90;99.90
54178;DHT22;40085;53.004;6.770;2022-12-04T01:43:40;0.90;99.90
54178;DHT22;40085;53.004;6.770;2022-12-04T01:46:07;0.90;99.90
54178;DHT22;40085;53.004;6.770;2022-12-04T01:48:36;0.90;99.90
54178;DHT22;40085;53.004;6.770;2022-12-04T01:51:12;0.90;99.90
54178;DHT22;40085;53.004;6.770;2022-12-04T01:53:41;0.90;99.90
54178;DHT22;40085;53.004;6.770;2022-12-04T01:56:09;0.90;99.90
54178;DHT22;40085;53.004;6.770;2022-12-04T01:58:41;0.90;99.90
54178;DHT22;40085;53.004;6.770;2022-12-04T02:01:08;0.80;99.90
54178;DHT22;40085;53.004;6.770;2022-12-04T02:03:35;0.80;99.90
54178;DHT22;40085;53.004;6.770;2022-12-04T02:06:01;0.80;99.90
54178;DHT22;40085;53.004;6.770;2022-12-04T02:08:27;0.80;99.90
54178;DHT22;40085;53.004;6.770;2022-12-04T02:13:48;0.80;99.90
54178;DHT22;40085;53.004;6.770;2022-12-04T02:21:55;0.80;99.90
54178;DHT22;40085;53.004;6.770;2022-12-04T02:24:31;0.80;99.90
54178;DHT22;40085;53.004;6.770;2022-12-04T02:27:07;0.80;99.90
54178;DHT22;40085;53.004;6.770;2022-12-04T02:30:02;0.90;99.90
54178;DHT22;40085;53.004;6.770;2022-12-04T02:32:37;0.90;99.90
54178;DHT22;40085;53.004;6.770;2022-12-04T02:35:45;0.90;99.90
54178;DHT22;40085;53.004;6.770;2022-12-04T02:41:43;0.90;99.90
54178;DHT22;40085;53.004;6.770;2022-12-04T02:43:51;0.80;99.90
54178;DHT22;40085;53.004;6.770;2022-12-04T02:48:54;2.20;99.90
54178;DHT22;40085;53.004;6.770;2022-12-04T02:51:22;0.90;99.90
54178;DHT22;40085;53.004;6.770;2022-12-04T02:53:54;0.80;99.90
54178;DHT22;40085;53.004;6.770;2022-12-04T02:56:42;0.80;99.90
54178;DHT22;40085;53.004;6.770;2022-12-04T02:59:22;0.80;99.90
54178;DHT22;40085;53.004;6.770;2022-12-04T03:01:53;0.80;99.90
54178;DHT22;40085;53.004;6.770;2022-12-04T03:04:24;0.80;99.90
54178;DHT22;40085;53.004;6.770;2022-12-04T03:06:57;2.00;99.90
54178;DHT22;40085;53.004;6.770;2022-12-04T03:09:31;0.80;99.90
54178;DHT22;40085;53.004;6.770;2022-12-04T03:13:06;0.80;99.90
54178;DHT22;40085;53.004;6.770;2022-12-04T03:15:17;0.80;99.90
54178;DHT22;40085;53.004;6.770;2022-12-04T03:17:54;0.80;99.90
54178;DHT22;40085;53.004;6.770;2022-12-04T03:20:22;0.80;99.90
54178;DHT22;40085;53.004;6.770;2022-12-04T03:22:55;0.80;99.90
54178;DHT22;40085;53.004;6.770;2022-12-04T03:25:27;0.70;99.90
54178;DHT22;40085;53.004;6.770;2022-12-04T03:28:00;0.70;99.90
54178;DHT22;40085;53.004;6.770;2022-12-04T03:30:31;0.70;99.90
54178;DHT22;40085;53.004;6.770;2022-12-04T03:33:10;0.70;99.90
54178;DHT22;40085;53.004;6.770;2022-12-04T03:35:45;0.80;99.90
54178;DHT22;40085;53.004;6.770;2022-12-04T03:38:56;0.70;99.90
54178;DHT22;40085;53.004;6.770;2022-12-04T03:44:34;0.70;99.90
54178;DHT22;40085;53.004;6.770;2022-12-04T03:47:11;0.70;99.90
54178;DHT22;40085;53.004;6.770;2022-12-04T03:50:17;0.70;99.90
54178;DHT22;40085;53.004;6.770;2022-12-04T03:52:56;1.80;99.90
54178;DHT22;40085;53.004;6.770;2022-12-04T03:55:29;0.60;99.90
54178;DHT22;40085;53.004;6.770;2022-12-04T03:58:02;0.60;99.90
54178;DHT22;40085;53.004;6.770;2022-12-04T04:00:30;1.70;99.90
54178;DHT22;40085;53.004;6.770;2022-12-04T04:03:18;1.80;99.90
54178;DHT22;40085;53.004;6.770;2022-12-04T04:05:46;0.60;99.90
54178;DHT22;40085;53.004;6.770;2022-12-04T04:08:18;0.60;99.90
54178;DHT22;40085;53.004;6.770;2022-12-04T04:11:19;0.60;99.90
54178;DHT22;40085;53.004;6.770;2022-12-04T04:13:56;0.70;99.90
54178;DHT22;40085;53.004;6.770;2022-12-04T04:16:45;0.60;99.90
54178;DHT22;40085;53.004;6.770;2022-12-04T04:19:32;0.60;99.90
54178;DHT22;40085;53.004;6.770;2022-12-04T04:22:19;0.60;99.90
54178;DHT22;40085;53.004;6.770;2022-12-04T04:25:12;0.60;99.90
54178;DHT22;40085;53.004;6.770;2022-12-04T04:27:40;0.60;99.90
54178;DHT22;40085;53.004;6.770;2022-12-04T04:30:07;0.60;99.90
54178;DHT22;40085;53.004;6.770;2022-12-04T04:32:40;0.60;99.90
54178;DHT22;40085;53.004;6.770;2022-12-04T04:40:37;0.50;99.90
54178;DHT22;40085;53.004;6.770;2022-12-04T04:43:14;0.50;99.90
54178;DHT22;40085;53.004;6.770;2022-12-04T04:46:19;0.50;99.90
54178;DHT22;40085;53.004;6.770;2022-12-04T04:48:50;0.60;99.90
54178;DHT22;40085;53.004;6.770;2022-12-04T04:51:17;0.60;99.90
54178;DHT22;40085;53.004;6.770;2022-12-04T04:53:46;0.60;99.90
54178;DHT22;40085;53.004;6.770;2022-12-04T04:56:14;0.60;99.90
54178;DHT22;40085;53.004;6.770;2022-12-04T04:58:40;0.60;99.90
54178;DHT22;40085;53.004;6.770;2022-12-04T05:01:13;0.90;99.90
54178;DHT22;40085;53.004;6.770;2022-12-04T05:03:39;0.60;99.90
54178;DHT22;40085;53.004;6.770;2022-12-04T05:06:05;0.50;99.90
54178;DHT22;40085;53.004;6.770;2022-12-04T05:08:32;0.50;99.90
54178;DHT22;40085;53.004;6.770;2022-12-04T05:10:57;0.60;99.90
54178;DHT22;40085;53.004;6.770;2022-12-04T05:13:23;0.60;99.90
54178;DHT22;40085;53.004;6.770;2022-12-04T05:16:06;0.60;99.90
54178;DHT22;40085;53.004;6.770;2022-12-04T05:18:34;0.50;99.90
54178;DHT22;40085;53.004;6.770;2022-12-04T05:21:07;0.60;99.90
54178;DHT22;40085;53.004;6.770;2022-12-04T05:23:33;0.50;99.90
54178;DHT22;40085;53.004;6.770;2022-12-04T05:26:03;0.50;99.90
54178;DHT22;40085;53.004;6.770;2022-12-04T05:28:30;0.50;99.90
54178;DHT22;40085;53.004;6.770;2022-12-04T05:30:57;0.60;99.90
54178;DHT22;40085;53.004;6.770;2022-12-04T05:33:23;0.50;99.90
54178;DHT22;40085;53.004;6.770;2022-12-04T05:36:00;1.80;99.90
54178;DHT22;40085;53.004;6.770;2022-12-04T05:38:26;2.20;99.90
54178;DHT22;40085;53.004;6.770;2022-12-04T05:40:52;0.60;99.90
54178;DHT22;40085;53.004;6.770;2022-12-04T05:43:18;0.80;99.90
54178;DHT22;40085;53.004;6.770;2022-12-04T05:45:44;0.60;99.90
54178;DHT22;40085;53.004;6.770;2022-12-04T05:48:09;0.50;99.90
54178;DHT22;40085;53.004;6.770;2022-12-04T05:50:37;0.60;99.90
54178;DHT22;40085;53.004;6.770;2022-12-04T05:53:03;0.60;99.90
54178;DHT22;40085;53.004;6.770;2022-12-04T05:55:29;2.10;99.90
54178;DHT22;40085;53.004;6.770;2022-12-04T05:57:55;0.60;99.90
54178;DHT22;40085;53.004;6.770;2022-12-04T06:00:21;0.60;99.90
54178;DHT22;40085;53.004;6.770;2022-12-04T06:02:47;0.60;99.90
54178;DHT22;40085;53.004;6.770;2022-12-04T06:05:12;0.60;99.90
54178;DHT22;40085;53.004;6.770;2022-12-04T06:07:38;0.60;99.90
54178;DHT22;40085;53.004;6.770;2022-12-04T06:10:05;0.60;99.90
54178;DHT22;40085;53.004;6.770;2022-12-04T06:12:30;0.60;99.90
54178;DHT22;40085;53.004;6.770;2022-12-04T06:14:56;0.60;99.90
54178;DHT22;40085;53.004;6.770;2022-12-04T06:17:22;0.60;99.90
54178;DHT22;40085;53.004;6.770;2022-12-04T06:19:48;0.60;99.90
54178;DHT22;40085;53.004;6.770;2022-12-04T06:22:15;0.60;99.90
54178;DHT22;40085;53.004;6.770;2022-12-04T06:24:41;0.60;99.90
54178;DHT22;40085;53.004;6.770;2022-12-04T06:27:06;0.60;99.90
54178;DHT22;40085;53.004;6.770;2022-12-04T06:29:32;0.60;99.90
54178;DHT22;40085;53.004;6.770;2022-12-04T06:31:58;0.60;99.90
54178;DHT22;40085;53.004;6.770;2022-12-04T06:34:24;0.60;99.90
54178;DHT22;40085;53.004;6.770;2022-12-04T06:36:49;0.60;99.90
54178;DHT22;40085;53.004;6.770;2022-12-04T06:39:15;0.60;99.90
54178;DHT22;40085;53.004;6.770;2022-12-04T06:41:40;0.60;99.90
54178;DHT22;40085;53.004;6.770;2022-12-04T06:44:06;0.60;99.90
54178;DHT22;40085;53.004;6.770;2022-12-04T06:46:33;0.60;99.90
54178;DHT22;40085;53.004;6.770;2022-12-04T06:48:59;0.60;99.90
54178;DHT22;40085;53.004;6.770;2022-12-04T06:51:31;0.70;99.90
54178;DHT22;40085;53.004;6.770;2022-12-04T06:53:57;0.60;99.90
54178;DHT22;40085;53.004;6.770;2022-12-04T06:56:25;0.50;99.90
54178;DHT22;40085;53.004;6.770;2022-12-04T06:58:54;0.50;99.90
54178;DHT22;40085;53.004;6.770;2022-12-04T07:01:26;0.60;99.90
54178;DHT22;40085;53.004;6.770;2022-12-04T07:03:52;0.60;99.90
54178;DHT22;40085;53.004;6.770;2022-12-04T07:06:23;0.50;99.90
54178;DHT22;40085;53.004;6.770;2022-12-04T07:08:53;0.50;99.90
54178;DHT22;40085;53.004;6.770;2022-12-04T07:11:21;0.50;99.90
54178;DHT22;40085;53.004;6.770;2022-12-04T07:13:48;0.50;99.90
54178;DHT22;40085;53.004;6.770;2022-12-04T07:16:16;0.50;99.90
54178;DHT22;40085;53.004;6.770;2022-12-04T07:18:42;0.50;99.90
54178;DHT22;40085;53.004;6.770;2022-12-04T07:21:10;0.50;99.90
54178;DHT22;40085;53.004;6.770;2022-12-04T07:23:36;0.50;99.90
54178;DHT22;40085;53.004;6.770;2022-12-04T07:26:07;0.50;99.90
54178;DHT22;40085;53.004;6.770;2022-12-04T07:28:33;0.50;99.90
54178;DHT22;40085;53.004;6.770;2022-12-04T07:31:05;0.50;99.90
54178;DHT22;40085;53.004;6.770;2022-12-04T07:33:31;0.50;99.90
54178;DHT22;40085;53.004;6.770;2022-12-04T07:35:58;0.50;99.90
54178;DHT22;40085;53.004;6.770;2022-12-04T07:38:24;0.50;99.90
54178;DHT22;40085;53.004;6.770;2022-12-04T07:40:49;0.50;99.90
54178;DHT22;40085;53.004;6.770;2022-12-04T07:43:16;0.50;99.90
54178;DHT22;40085;53.004;6.770;2022-12-04T07:45:43;0.60;99.90
54178;DHT22;40085;53.004;6.770;2022-12-04T07:48:09;0.60;99.90
54178;DHT22;40085;53.004;6.770;2022-12-04T07:50:35;0.50;99.90
54178;DHT22;40085;53.004;6.770;2022-12-04T07:53:00;0.50;99.90
54178;DHT22;40085;53.004;6.770;2022-12-04T07:55:26;0.60;99.90
54178;DHT22;40085;53.004;6.770;2022-12-04T07:57:51;0.60;99.90
54178;DHT22;40085;53.004;6.770;2022-12-04T08:00:17;0.50;99.90
54178;DHT22;40085;53.004;6.770;2022-12-04T08:02:43;0.50;99.90
54178;DHT22;40085;53.004;6.770;2022-12-04T08:05:09;0.50;99.90
54178;DHT22;40085;53.004;6.770;2022-12-04T08:07:34;0.90;99.90
54178;DHT22;40085;53.004;6.770;2022-12-04T08:10:00;0.50;99.90
54178;DHT22;40085;53.004;6.770;2022-12-04T08:12:26;0.60;99.90
54178;DHT22;40085;53.004;6.770;2022-12-04T08:14:52;0.60;99.90
54178;DHT22;40085;53.004;6.770;2022-12-04T08:17:17;0.60;99.90
54178;DHT22;40085;53.004;6.770;2022-12-04T08:19:43;0.60;99.90
54178;DHT22;40085;53.004;6.770;2022-12-04T08:22:08;0.60;99.90
54178;DHT22;40085;53.004;6.770;2022-12-04T08:24:35;0.60;99.90
54178;DHT22;40085;53.004;6.770;2022-12-04T08:27:01;0.60;99.90
54178;DHT22;40085;53.004;6.770;2022-12-04T08:29:27;0.60;99.90
54178;DHT22;40085;53.004;6.770;2022-12-04T08:31:53;0.70;99.90
54178;DHT22;40085;53.004;6.770;2022-12-04T08:34:19;0.70;99.90
54178;DHT22;40085;53.004;6.770;2022-12-04T08:36:44;0.70;99.90
54178;DHT22;40085;53.004;6.770;2022-12-04T08:39:10;2.30;99.90
54178;DHT22;40085;53.004;6.770;2022-12-04T08:41:37;0.70;99.90
54178;DHT22;40085;53.004;6.770;2022-12-04T08:44:03;0.80;99.90
54178;DHT22;40085;53.004;6.770;2022-12-04T08:46:29;0.70;99.90
54178;DHT22;40085;53.004;6.770;2022-12-04T08:48:55;0.80;99.90
54178;DHT22;40085;53.004;6.770;2022-12-04T08:51:24;0.80;99.90
54178;DHT22;40085;53.004;6.770;2022-12-04T08:53:58;0.90;99.90
54178;DHT22;40085;53.004;6.770;2022-12-04T08:56:26;0.80;99.90
54178;DHT22;40085;53.004;6.770;2022-12-04T08:58:54;0.90;99.90
54178;DHT22;40085;53.004;6.770;2022-12-04T09:01:21;0.90;99.90
54178;DHT22;40085;53.004;6.770;2022-12-04T09:03:46;0.90;99.90
54178;DHT22;40085;53.004;6.770;2022-12-04T09:06:13;0.90;99.90
54178;DHT22;40085;53.004;6.770;2022-12-04T09:08:39;0.90;99.90
54178;DHT22;40085;53.004;6.770;2022-12-04T09:11:14;1.00;99.90
54178;DHT22;40085;53.004;6.770;2022-12-04T09:13:40;1.00;99.90
54178;DHT22;40085;53.004;6.770;2022-12-04T09:16:12;2.40;99.90
54178;DHT22;40085;53.004;6.770;2022-12-04T09:18:38;1.00;99.90
54178;DHT22;40085;53.004;6.770;2022-12-04T09:21:07;1.00;99.90
54178;DHT22;40085;53.004;6.770;2022-12-04T09:23:34;1.10;99.90
54178;DHT22;40085;53.004;6.770;2022-12-04T09:26:01;1.10;99.90
54178;DHT22;40085;53.004;6.770;2022-12-04T09:28:26;1.10;99.90
54178;DHT22;40085;53.004;6.770;2022-12-04T09:31:02;1.10;99.90
54178;DHT22;40085;53.004;6.770;2022-12-04T09:33:28;1.20;99.90
54178;DHT22;40085;53.004;6.770;2022-12-04T09:35:57;1.20;99.90
54178;DHT22;40085;53.004;6.770;2022-12-04T09:38:23;1.20;99.90
54178;DHT22;40085;53.004;6.770;2022-12-04T09:41:08;1.20;99.90
54178;DHT22;40085;53.004;6.770;2022-12-04T09:43:46;1.20;99.90
54178;DHT22;40085;53.004;6.770;2022-12-04T09:46:19;1.30;99.90
54178;DHT22;40085;53.004;6.770;2022-12-04T09:48:48;1.30;99.90
54178;DHT22;40085;53.004;6.770;2022-12-04T09:51:18;1.30;99.90
54178;DHT22;40085;53.004;6.770;2022-12-04T09:53:59;1.40;99.90
54178;DHT22;40085;53.004;6.770;2022-12-04T09:56:29;1.40;99.90
54178;DHT22;40085;53.004;6.770;2022-12-04T10:01:27;1.40;99.90
54178;DHT22;40085;53.004;6.770;2022-12-04T10:03:55;1.50;99.90
54178;DHT22;40085;53.004;6.770;2022-12-04T10:06:31;1.50;99.90
54178;DHT22;40085;53.004;6.770;2022-12-04T10:09:11;1.60;99.90
54178;DHT22;40085;53.004;6.770;2022-12-04T10:11:54;1.60;99.90
54178;DHT22;40085;53.004;6.770;2022-12-04T10:17:46;1.60;99.90
54178;DHT22;40085;53.004;6.770;2022-12-04T10:23:35;1.70;99.90
54178;DHT22;40085;53.004;6.770;2022-12-04T10:26:03;1.80;99.90
54178;DHT22;40085;53.004;6.770;2022-12-04T10:28:40;1.80;99.90
54178;DHT22;40085;53.004;6.770;2022-12-04T10:31:12;2.80;99.90
54178;DHT22;40085;53.004;6.770;2022-12-04T10:33:44;2.00;99.90
54178;DHT22;40085;53.004;6.770;2022-12-04T10:36:15;2.00;99.90
54178;DHT22;40085;53.004;6.770;2022-12-04T10:41:30;2.10;99.90
54178;DHT22;40085;53.004;6.770;2022-12-04T10:43:59;2.10;99.90
54178;DHT22;40085;53.004;6.770;2022-12-04T10:46:30;2.10;99.90
54178;DHT22;40085;53.004;6.770;2022-12-04T10:49:03;2.10;99.90
54178;DHT22;40085;53.004;6.770;2022-12-04T10:51:38;2.10;99.90
54178;DHT22;40085;53.004;6.770;2022-12-04T10:54:18;2.10;99.90
54178;DHT22;40085;53.004;6.770;2022-12-04T10:57:00;2.40;99.90
54178;DHT22;40085;53.004;6.770;2022-12-04T10:59:27;2.10;99.90
54178;DHT22;40085;53.004;6.770;2022-12-04T11:01:59;2.10;99.90
54178;DHT22;40085;53.004;6.770;2022-12-04T11:04:28;2.30;99.90
54178;DHT22;40085;53.004;6.770;2022-12-04T11:07:24;2.10;99.90
54178;DHT22;40085;53.004;6.770;2022-12-04T11:10:00;2.20;99.90
54178;DHT22;40085;53.004;6.770;2022-12-04T11:12:28;2.10;99.90
54178;DHT22;40085;53.004;6.770;2022-12-04T11:15:14;2.20;99.90
54178;DHT22;40085;53.004;6.770;2022-12-04T11:17:40;2.10;99.90
54178;DHT22;40085;53.004;6.770;2022-12-04T11:20:13;2.10;99.90
54178;DHT22;40085;53.004;6.770;2022-12-04T11:25:16;2.20;99.90
54178;DHT22;40085;53.004;6.770;2022-12-04T11:27:45;2.20;99.90
54178;DHT22;40085;53.004;6.770;2022-12-04T11:30:14;2.20;99.90
54178;DHT22;40085;53.004;6.770;2022-12-04T11:32:43;2.20;99.90
54178;DHT22;40085;53.004;6.770;2022-12-04T11:35:21;2.70;99.90
54178;DHT22;40085;53.004;6.770;2022-12-04T11:37:58;2.20;99.90
54178;DHT22;40085;53.004;6.770;2022-12-04T11:40:25;4.10;99.90
54178;DHT22;40085;53.004;6.770;2022-12-04T11:43:09;2.20;99.90
54178;DHT22;40085;53.004;6.770;2022-12-04T11:45:37;2.20;99.90
54178;DHT22;40085;53.004;6.770;2022-12-04T11:48:13;2.90;99.90
54178;DHT22;40085;53.004;6.770;2022-12-04T11:59:51;2.30;99.90
54178;DHT22;40085;53.004;6.770;2022-12-04T12:05:35;2.40;99.90
54178;DHT22;40085;53.004;6.770;2022-12-04T12:08:22;2.40;99.90
54178;DHT22;40085;53.004;6.770;2022-12-04T12:27:51;2.50;99.90
54178;DHT22;40085;53.004;6.770;2022-12-04T12:30:21;2.50;99.90
54178;DHT22;40085;53.004;6.770;2022-12-04T12:33:14;2.50;99.90
54178;DHT22;40085;53.004;6.770;2022-12-04T12:41:17;2.60;99.90
54178;DHT22;40085;53.004;6.770;2022-12-04T12:43:52;2.60;99.90
54178;DHT22;40085;53.004;6.770;2022-12-04T12:46:40;2.60;99.90
54178;DHT22;40085;53.004;6.770;2022-12-04T12:49:24;2.60;99.90
54178;DHT22;40085;53.004;6.770;2022-12-04T12:52:26;2.60;99.90
54178;DHT22;40085;53.004;6.770;2022-12-04T12:55:08;2.60;99.90
54178;DHT22;40085;53.004;6.770;2022-12-04T12:57:41;2.60;99.90
54178;DHT22;40085;53.004;6.770;2022-12-04T13:00:18;2.60;99.90
54178;DHT22;40085;53.004;6.770;2022-12-04T13:03:14;2.60;99.90
54178;DHT22;40085;53.004;6.770;2022-12-04T13:05:44;2.50;99.90
54178;DHT22;40085;53.004;6.770;2022-12-04T13:10:46;2.50;99.90
54178;DHT22;40085;53.004;6.770;2022-12-04T13:13:22;2.50;99.90
54178;DHT22;40085;53.004;6.770;2022-12-04T13:16:20;2.50;99.90
54178;DHT22;40085;53.004;6.770;2022-12-04T13:19:19;2.50;99.90
54178;DHT22;40085;53.004;6.770;2022-12-04T13:24:38;3.30;99.90
54178;DHT22;40085;53.004;6.770;2022-12-04T13:30:14;2.50;99.90
54178;DHT22;40085;53.004;6.770;2022-12-04T13:41:06;2.60;99.90
54178;DHT22;40085;53.004;6.770;2022-12-04T13:46:22;2.50;99.90
54178;DHT22;40085;53.004;6.770;2022-12-04T13:48:49;2.50;99.90
54178;DHT22;40085;53.004;6.770;2022-12-04T13:51:48;2.50;99.90
54178;DHT22;40085;53.004;6.770;2022-12-04T13:56:37;2.70;99.90
54178;DHT22;40085;53.004;6.770;2022-12-04T13:59:05;4.00;99.90
54178;DHT22;40085;53.004;6.770;2022-12-04T14:01:37;2.50;99.90
54178;DHT22;40085;53.004;6.770;2022-12-04T14:04:06;2.50;99.90
54178;DHT22;40085;53.004;6.770;2022-12-04T14:06:41;2.50;99.90
54178;DHT22;40085;53.004;6.770;2022-12-04T14:10:01;2.50;99.90
54178;DHT22;40085;53.004;6.770;2022-12-04T14:12:10;2.50;99.90
54178;DHT22;40085;53.004;6.770;2022-12-04T14:15:43;2.40;99.90
54178;DHT22;40085;53.004;6.770;2022-12-04T14:17:38;2.40;99.90
54178;DHT22;40085;53.004;6.770;2022-12-04T14:20:23;2.40;99.90
54178;DHT22;40085;53.004;6.770;2022-12-04T14:22:50;2.40;99.90
54178;DHT22;40085;53.004;6.770;2022-12-04T14:25:21;2.40;99.90
54178;DHT22;40085;53.004;6.770;2022-12-04T14:27:50;2.40;99.90
54178;DHT22;40085;53.004;6.770;2022-12-04T14:30:23;2.40;99.90
54178;DHT22;40085;53.004;6.770;2022-12-04T14:32:51;2.40;99.90
54178;DHT22;40085;53.004;6.770;2022-12-04T14:35:25;2.40;99.90
54178;DHT22;40085;53.004;6.770;2022-12-04T14:37:58;2.40;99.90
54178;DHT22;40085;53.004;6.770;2022-12-04T14:40:43;2.30;99.90
54178;DHT22;40085;53.004;6.770;2022-12-04T14:43:18;2.40;99.90
54178;DHT22;40085;53.004;6.770;2022-12-04T14:48:39;2.40;99.90
54178;DHT22;40085;53.004;6.770;2022-12-04T14:51:33;2.40;99.90
54178;DHT22;40085;53.004;6.770;2022-12-04T14:57:53;2.40;99.90
54178;DHT22;40085;53.004;6.770;2022-12-04T14:59:59;2.40;99.90
54178;DHT22;40085;53.004;6.770;2022-12-04T15:02:40;2.40;99.90
54178;DHT22;40085;53.004;6.770;2022-12-04T15:05:41;2.40;99.90
54178;DHT22;40085;53.004;6.770;2022-12-04T15:08:07;2.40;99.90
54178;DHT22;40085;53.004;6.770;2022-12-04T15:10:33;2.40;99.90
54178;DHT22;40085;53.004;6.770;2022-12-04T15:13:30;2.40;99.90
54178;DHT22;40085;53.004;6.770;2022-12-04T15:15:56;2.50;99.90
54178;DHT22;40085;53.004;6.770;2022-12-04T15:18:22;2.40;99.90
54178;DHT22;40085;53.004;6.770;2022-12-04T15:23:16;2.40;99.90
54178;DHT22;40085;53.004;6.770;2022-12-04T15:25:45;2.50;99.90
54178;DHT22;40085;53.004;6.770;2022-12-04T15:31:19;2.50;99.90
54178;DHT22;40085;53.004;6.770;2022-12-04T15:33:48;2.50;99.90
54178;DHT22;40085;53.004;6.770;2022-12-04T15:36:23;2.50;99.90
54178;DHT22;40085;53.004;6.770;2022-12-04T15:38:52;2.60;99.90
54178;DHT22;40085;53.004;6.770;2022-12-04T15:41:40;2.60;99.90
54178;DHT22;40085;53.004;6.770;2022-12-04T15:44:29;2.60;99.90
54178;DHT22;40085;53.004;6.770;2022-12-04T15:46:57;2.60;99.90
54178;DHT22;40085;53.004;6.770;2022-12-04T15:49:29;2.60;99.90
54178;DHT22;40085;53.004;6.770;2022-12-04T15:52:18;2.60;99.90
54178;DHT22;40085;53.004;6.770;2022-12-04T15:54:55;2.70;99.90
54178;DHT22;40085;53.004;6.770;2022-12-04T15:59:51;2.70;99.90
54178;DHT22;40085;53.004;6.770;2022-12-04T16:02:28;2.70;99.90
54178;DHT22;40085;53.004;6.770;2022-12-04T16:04:54;2.70;99.90
54178;DHT22;40085;53.004;6.770;2022-12-04T16:07:22;2.70;99.90
54178;DHT22;40085;53.004;6.770;2022-12-04T16:09:52;2.70;99.90
54178;DHT22;40085;53.004;6.770;2022-12-04T16:12:24;3.50;99.90
54178;DHT22;40085;53.004;6.770;2022-12-04T16:14:54;2.70;99.90
54178;DHT22;40085;53.004;6.770;2022-12-04T16:17:24;2.70;99.90
54178;DHT22;40085;53.004;6.770;2022-12-04T16:19:53;2.70;99.90
54178;DHT22;40085;53.004;6.770;2022-12-04T16:22:21;2.70;99.90
54178;DHT22;40085;53.004;6.770;2022-12-04T16:24:49;2.80;99.90
54178;DHT22;40085;53.004;6.770;2022-12-04T16:27:18;4.30;99.90
54178;DHT22;40085;53.004;6.770;2022-12-04T16:29:45;2.80;99.90
54178;DHT22;40085;53.004;6.770;2022-12-04T16:32:16;2.80;99.90
54178;DHT22;40085;53.004;6.770;2022-12-04T16:34:42;2.90;99.90
54178;DHT22;40085;53.004;6.770;2022-12-04T16:37:12;2.90;99.90
54178;DHT22;40085;53.004;6.770;2022-12-04T16:39:39;2.90;99.90
54178;DHT22;40085;53.004;6.770;2022-12-04T16:42:05;2.90;99.90
54178;DHT22;40085;53.004;6.770;2022-12-04T16:44:30;2.90;99.90
54178;DHT22;40085;53.004;6.770;2022-12-04T16:46:56;3.70;99.90
54178;DHT22;40085;53.004;6.770;2022-12-04T16:49:21;2.90;99.90
54178;DHT22;40085;53.004;6.770;2022-12-04T16:51:47;2.90;99.90
54178;DHT22;40085;53.004;6.770;2022-12-04T16:54:14;2.90;99.90
54178;DHT22;40085;53.004;6.770;2022-12-04T16:56:40;2.90;99.90
54178;DHT22;40085;53.004;6.770;2022-12-04T16:59:06;2.90;99.90
54178;DHT22;40085;53.004;6.770;2022-12-04T17:01:44;2.90;99.90
54178;DHT22;40085;53.004;6.770;2022-12-04T17:04:11;2.90;99.90
54178;DHT22;40085;53.004;6.770;2022-12-04T17:06:37;2.90;99.90
54178;DHT22;40085;53.004;6.770;2022-12-04T17:09:03;4.20;99.90
54178;DHT22;40085;53.004;6.770;2022-12-04T17:11:29;2.90;99.90
54178;DHT22;40085;53.004;6.770;2022-12-04T17:13:55;2.90;99.90
54178;DHT22;40085;53.004;6.770;2022-12-04T17:16:20;3.00;99.90
54178;DHT22;40085;53.004;6.770;2022-12-04T17:18:47;3.00;99.90
54178;DHT22;40085;53.004;6.770;2022-12-04T17:21:13;3.00;99.90
54178;DHT22;40085;53.004;6.770;2022-12-04T17:23:38;3.00;99.90
54178;DHT22;40085;53.004;6.770;2022-12-04T17:26:09;3.00;99.90
54178;DHT22;40085;53.004;6.770;2022-12-04T17:28:34;3.00;99.90
54178;DHT22;40085;53.004;6.770;2022-12-04T17:31:04;3.00;99.90
54178;DHT22;40085;53.004;6.770;2022-12-04T17:33:35;3.00;99.90
54178;DHT22;40085;53.004;6.770;2022-12-04T17:36:01;3.00;99.90
54178;DHT22;40085;53.004;6.770;2022-12-04T17:38:31;3.10;99.90
54178;DHT22;40085;53.004;6.770;2022-12-04T17:41:01;3.60;99.90
54178;DHT22;40085;53.004;6.770;2022-12-04T17:43:27;3.10;99.90
54178;DHT22;40085;53.004;6.770;2022-12-04T17:45:54;3.10;99.90
54178;DHT22;40085;53.004;6.770;2022-12-04T17:48:20;3.10;99.90
54178;DHT22;40085;53.004;6.770;2022-12-04T17:50:46;3.10;99.90
54178;DHT22;40085;53.004;6.770;2022-12-04T17:53:11;3.20;99.90
54178;DHT22;40085;53.004;6.770;2022-12-04T17:55:37;3.10;99.90
54178;DHT22;40085;53.004;6.770;2022-12-04T17:58:02;3.10;99.90